Terminal Aerodrome Forecast
Issued by NWS Huntsville, AL

Home | Current Version | Previous Version | Text Only | Print | Product List | Glossary On
Versions: 1 2 3 4 5 6 7 8 9 10 11 12 13 14 15 16 17 18 19 20 21 22 23 24 25 26 27 28 29 30 31 32 33 34 35 36
000
FTUS44 KHUN 191730
TAFMSL
TAF
KMSL 191730Z 1918/2018 17006KT 4SM -RA BR OVC009
      TEMPO 1918/1922 2SM TSRA BR BKN007 OVC015CB
     FM192200 20005KT 3SM -SHRA BR OVC008
     FM200100 19007KT 4SM -RA BR OVC009
     FM200800 20005KT 2SM BR OVC006
     FM201500 19005KT 6SM BR OVC012=

USA.gov is the U.S. government's official web portal to all federal, state and local government web resources and services.